Spring Valley, Minnesota
Current Conditions -  °F | °C
As of 12:35 PM on Sunday 23 Nov 2014 (Local Time) from KFKA Reporting Station
Moderate Fog Moderate Fog  
Wind Chill: 43°   Ceiling: 100
Heat Index: 48°   Visibility: 0.25mi
Dew Point: 47°   Wind: 9mph
Humidity: 97%   Direction: 180°S
Pressure: 29.43"   Gusts: NA
Location:  43.69°N, 92.39°W
Report Text: KFKA 231835Z AUTO 18008KT 1/4SM FG OVC001 09/08 A2943 RMK AO2 T00870083
Loading
Personal Weather Stations






























Interactive Weather Map New forecast layout! Learn more

10-Day Weather Forecast

Advertisements
Track Severe Weather on mobile